Robert Fulton — WBS7886 — position and weather

sailwx.info

Track history (hours):
 
Tides and Currents Weather Stations Pressure Air Temp Water Temp Dewpoint Dewpoint Depression Visibility Wind Speed Wind Dir Waves Ship Positions

Robert Fulton

Owner: PORT IMPERIAL FERRY CORP, WEEHAWKEN, NJ. More information available from US FCC via Universal Licensing System and Coast Guard Vessel Documentation Center.

Last reported at 2017-Oct-22 21:00 UTC. Time now 2017-Oct-22 21:21 UTC.
Position N 40°46' W 074°00'.

Length 28 m.

Type: Passenger vessel. MMSI: 366702000.

Date/timePositionNaut miles runAvg speedWind from/ knotsBaromVisibWave heightAir tempDewpointWater temp
2017-Oct-22 21:00N 40°46' W 074°00'2 4.1
2017-Oct-22 20:30N 40°44' W 074°01'2 3.6
2017-Oct-22 20:00N 40°42' W 073°60'1 2.4
2017-Oct-22 19:30N 40°43' W 074°01'3 5.3
2017-Oct-22 19:00N 40°46' W 074°00'2 4.3
2017-Oct-22 18:30N 40°44' W 074°01'2 3.6
2017-Oct-22 18:00N 40°42' W 073°60'1 2.5
2017-Oct-22 17:30N 40°43' W 074°01'3 5.4
2017-Oct-22 17:00N 40°46' W 074°00'2 3.9
2017-Oct-22 16:30N 40°44' W 074°01'2 3.7
2017-Oct-22 15:59N 40°42' W 074°00'1 2.4
2017-Oct-22 15:30N 40°43' W 074°01'3 5.6
2017-Oct-22 15:00N 40°46' W 074°00'0 0.0
2017-Oct-21 23:44N 40°46' W 074°01'1 3.1
2017-Oct-21 23:30N 40°45' W 074°01'4 7.1
2017-Oct-21 23:00N 40°42' W 074°02'1 2.5
2017-Oct-21 22:30N 40°42' W 074°00'3 6.7
2017-Oct-21 22:00N 40°46' W 074°00'4 7.5
2017-Oct-21 21:30N 40°42' W 074°00'4 7.1
2017-Oct-21 20:59N 40°46' W 074°00'3 6.0
2017-Oct-21 20:30N 40°43' W 074°02'2 3.2
2017-Oct-21 20:00N 40°42' W 073°60'1 2.5
2017-Oct-21 19:30N 40°43' W 074°01'3 5.5
2017-Oct-21 19:00N 40°46' W 074°00'2 4.8
2017-Oct-21 18:30N 40°43' W 074°01'2 3.2
2017-Oct-21 18:00N 40°42' W 073°60'1 2.4
2017-Oct-21 17:30N 40°43' W 074°01'3 5.5
2017-Oct-21 17:00N 40°46' W 074°00'2 4.6
2017-Oct-21 16:30N 40°43' W 074°01'2 3.4
2017-Oct-21 16:00N 40°42' W 073°60'1 2.3
2017-Oct-21 15:30N 40°43' W 074°01'3 5.4
2017-Oct-21 15:00N 40°46' W 074°00'1 1.5
2017-Oct-21 14:30N 40°46' W 074°01'0 0.0
2017-Oct-20 23:43N 40°46' W 074°01'1 3.3
2017-Oct-20 23:30N 40°46' W 074°00'5 9.5
2017-Oct-20 23:01N 40°41' W 074°02'1 2.8
2017-Oct-20 22:30N 40°42' W 074°01'4 8.9
2017-Oct-20 22:01N 40°46' W 074°00'3 6.7
2017-Oct-20 21:31N 40°43' W 074°01'1 2.4
2017-Oct-20 21:01N 40°44' W 074°02'1 1.5
2017-Oct-20 20:30N 40°43' W 074°01'2 3.2
2017-Oct-20 20:00N 40°42' W 073°60'1 2.5
2017-Oct-20 19:30N 40°43' W 074°01'3 6.0
2017-Oct-20 19:00N 40°46' W 074°00'2 4.1
2017-Oct-20 18:30N 40°44' W 074°01'2 3.6
2017-Oct-20 18:00N 40°42' W 073°60'1 2.2
2017-Oct-20 17:31N 40°42' W 074°01'4 7.1
2017-Oct-20 17:00N 40°46' W 074°00'1 2.0
2017-Oct-20 16:30N 40°45' W 074°01'3 6.4
2017-Oct-20 16:01N 40°42' W 074°01'1 1.1
2017-Oct-20 15:31N 40°42' W 074°01'4 7.5
2017-Oct-20 15:00N 40°46' W 074°00'0 0.1
2017-Oct-20 14:30N 40°46' W 074°00'0 0.2
2017-Oct-20 13:30N 40°46' W 074°00'0 0.6
2017-Oct-20 13:00N 40°45' W 074°01'0 0.6
2017-Oct-20 12:30N 40°45' W 074°01'0 0.1
2017-Oct-20 12:00N 40°45' W 074°01'0 0.1
2017-Oct-20 11:30N 40°46' W 074°01'1 1.4
2017-Oct-20 11:00N 40°46' W 074°01'0 0.7
2017-Oct-20 10:29N 40°46' W 074°01'0 0.0
2017-Oct-19 23:51N 40°46' W 074°01'1 2.8
2017-Oct-19 23:30N 40°45' W 074°01'3 6.9
2017-Oct-19 23:00N 40°42' W 074°01'0 0.2
2017-Oct-19 22:30N 40°42' W 074°01'5 9.2
2017-Oct-19 22:00N 40°47' W 074°01'4 7.4
2017-Oct-19 21:30N 40°43' W 074°01'3 5.2
2017-Oct-19 21:00N 40°46' W 074°01'1 2.5
2017-Oct-19 20:30N 40°44' W 074°01'2 5.0
2017-Oct-19 20:00N 40°42' W 074°01'0 0.6
2017-Oct-19 19:30N 40°42' W 074°01'4 7.4
2017-Oct-19 19:00N 40°46' W 074°00'2 4.1
2017-Oct-19 18:30N 40°44' W 074°01'2 3.9
2017-Oct-19 18:00N 40°42' W 074°01'1 1.2
2017-Oct-19 17:31N 40°42' W 074°01'4 7.1
2017-Oct-19 17:00N 40°46' W 074°00'1 2.8
2017-Oct-19 16:30N 40°44' W 074°01'3 5.1
2017-Oct-19 16:01N 40°42' W 074°01'0 0.5
2017-Oct-19 15:30N 40°42' W 074°01'4 7.1
2017-Oct-19 15:00N 40°46' W 074°00'0 0.0
2017-Oct-19 14:30N 40°46' W 074°00'1 1.3
2017-Oct-19 14:00N 40°45' W 074°01'0 0.2
2017-Oct-19 13:30N 40°45' W 074°01'0 0.3
2017-Oct-19 13:00N 40°45' W 074°01'0 0.2
2017-Oct-19 12:30N 40°45' W 074°01'0 0.1
2017-Oct-19 12:00N 40°46' W 074°01'0 0.0
2017-Oct-19 11:30N 40°46' W 074°01'1 1.7
2017-Oct-19 11:00N 40°46' W 074°00'1 1.5
2017-Oct-19 10:31N 40°46' W 074°01'0 0.0
2017-Oct-19 10:00N 40°46' W 074°01'0 0.0
2017-Oct-19 09:30N 40°46' W 074°01'0 0.0
2017-Oct-19 09:01N 40°46' W 074°01'0 0.0
2017-Oct-18 23:59N 40°46' W 074°01'2 4.6
2017-Oct-18 23:30N 40°44' W 074°01'2 4.1
2017-Oct-18 23:00N 40°42' W 073°60'1 2.4
2017-Oct-18 22:30N 40°42' W 074°01'4 8.5
2017-Oct-18 22:00N 40°46' W 074°00'3 6.5
2017-Oct-18 21:30N 40°43' W 074°01'3 5.5
2017-Oct-18 21:00N 40°46' W 074°00'2 4.6
2017-Oct-18 20:30N 40°43' W 074°01'2 3.5
2017-Oct-18 20:00N 40°42' W 074°00'1 2.4
2017-Oct-18 19:30N 40°43' W 074°01'3 5.4
2017-Oct-18 19:00N 40°46' W 074°00'2 3.6
2017-Oct-18 18:30N 40°44' W 074°01'2 4.3
2017-Oct-18 18:00N 40°42' W 074°01'0 0.8
2017-Oct-18 17:30N 40°42' W 074°01'4 7.7
2017-Oct-18 17:00N 40°46' W 074°00'1 2.6
2017-Oct-18 16:30N 40°44' W 074°01'3 5.7
2017-Oct-18 16:01N 40°42' W 074°02'1 1.6
2017-Oct-18 15:30N 40°42' W 074°01'4 7.5
2017-Oct-18 15:00N 40°46' W 074°00'1 0.8
2017-Oct-18 14:00N 40°46' W 074°01'1 2.0
2017-Oct-18 13:30N 40°45' W 074°01'0 0.1
2017-Oct-18 13:00N 40°45' W 074°01'0 0.2
2017-Oct-18 12:30N 40°46' W 074°01'0 0.2
2017-Oct-18 12:00N 40°45' W 074°01'0 0.1
2017-Oct-18 11:30N 40°45' W 074°01'1 1.5
2017-Oct-18 11:00N 40°46' W 074°00'1 0.1
2017-Oct-17 23:44N 40°46' W 074°01'1 3.2
2017-Oct-17 23:30N 40°46' W 074°00'5 9.4
2017-Oct-17 23:00N 40°41' W 074°02'2 3.2
2017-Oct-17 22:30N 40°42' W 074°01'4 7.4
2017-Oct-17 22:00N 40°46' W 074°00'1 1.6
2017-Oct-17 21:30N 40°45' W 074°01'3 6.2
2017-Oct-17 21:00N 40°42' W 074°01'1 1.3
2017-Oct-17 20:30N 40°42' W 074°01'3 6.4
2017-Oct-17 20:00N 40°46' W 074°00'2 3.1
2017-Oct-17 19:30N 40°44' W 074°01'2 4.9
2017-Oct-17 19:00N 40°42' W 074°02'1 1.3
2017-Oct-17 18:30N 40°42' W 074°01'3 6.5
2017-Oct-17 18:00N 40°46' W 074°00'2 3.6
2017-Oct-17 17:30N 40°44' W 074°01'2 4.5
2017-Oct-17 17:00N 40°42' W 074°01'1 1.4
2017-Oct-17 16:30N 40°42' W 074°01'3 6.4
2017-Oct-17 16:00N 40°46' W 074°00'2 5.0
2017-Oct-17 15:30N 40°43' W 074°01'2 3.2
2017-Oct-17 15:00N 40°42' W 073°60'1 2.5
2017-Oct-17 14:30N 40°43' W 074°01'3 5.5
2017-Oct-17 14:01N 40°46' W 074°00'1 1.4
2017-Oct-17 13:30N 40°45' W 074°01'0 0.1
2017-Oct-17 13:00N 40°45' W 074°01'0 0.2
2017-Oct-17 12:30N 40°45' W 074°01'0 0.1
2017-Oct-17 12:00N 40°46' W 074°01'0 0.0
2017-Oct-17 11:30N 40°46' W 074°01'1 1.7
2017-Oct-17 11:00N 40°46' W 074°00'1 1.6
2017-Oct-17 10:30N 40°46' W 074°01'0 0.0
2017-Oct-17 10:00N 40°46' W 074°01'0 0.0
2017-Oct-17 09:31N 40°46' W 074°01'0 0.0
2017-Oct-16 22:06N 40°46' W 074°01'0 2.1
2017-Oct-16 22:00N 40°46' W 074°01'3 6.6
2017-Oct-16 21:30N 40°43' W 074°01'1 2.4
2017-Oct-16 21:00N 40°44' W 074°02'2 3.5
2017-Oct-16 20:30N 40°46' W 074°00'4 8.0
2017-Oct-16 20:00N 40°42' W 074°01'0 0.8
2017-Oct-16 19:30N 40°42' W 074°01'4 7.1
2017-Oct-16 19:00N 40°46' W 074°00'1 2.6
2017-Oct-16 18:30N 40°44' W 074°01'3 5.9
2017-Oct-16 18:00N 40°42' W 074°02'1 1.1
2017-Oct-16 17:30N 40°42' W 074°01'4 7.4
2017-Oct-16 17:00N 40°46' W 074°00'2 3.4
2017-Oct-16 16:30N 40°44' W 074°01'2 4.5
2017-Oct-16 16:01N 40°42' W 074°01'1 2.3
2017-Oct-16 15:30N 40°43' W 074°01'3 5.4
2017-Oct-16 15:00N 40°46' W 074°00'0 0.0
2017-Oct-16 14:30N 40°46' W 074°00'0 0.0
2017-Oct-16 13:30N 40°46' W 074°00'1 1.9
2017-Oct-16 13:00N 40°45' W 074°01'0 0.2
2017-Oct-16 12:05N 40°45' W 074°01'0 2.3
2017-Oct-16 12:00N 40°45' W 074°01'1 1.9
2017-Oct-16 11:30N 40°46' W 074°00'1 1.6
2017-Oct-16 11:00N 40°45' W 074°01'1 0.1
2017-Oct-15 23:41N 40°46' W 074°01'1 4.0
2017-Oct-15 23:30N 40°46' W 074°00'4 9.1
2017-Oct-15 23:01N 40°41' W 074°02'3 5.1
2017-Oct-15 22:31N 40°42' W 073°59'3 6.4
2017-Oct-15 22:00N 40°46' W 074°00'0 0.0
2017-Oct-15 21:30N 40°46' W 074°00'0 0.0
2017-Oct-15 21:00N 40°46' W 074°00'2 3.1
2017-Oct-15 20:30N 40°44' W 074°01'2 4.5
2017-Oct-15 20:00N 40°42' W 074°00'1 1.8
2017-Oct-15 19:30N 40°42' W 074°01'3 6.4
2017-Oct-15 19:00N 40°46' W 074°00'2 3.5
2017-Oct-15 18:30N 40°44' W 074°01'2 4.3
2017-Oct-15 18:00N 40°42' W 074°01'1 1.1
2017-Oct-15 17:30N 40°42' W 074°01'4 7.0
2017-Oct-15 17:00N 40°46' W 074°00'2 3.4
2017-Oct-15 16:30N 40°44' W 074°01'2 4.5
2017-Oct-15 16:00N 40°42' W 074°01'0 0.4
2017-Oct-15 15:31N 40°42' W 074°01'4 7.3
2017-Oct-15 15:00N 40°46' W 074°00'1 0.0
2017-Oct-14 23:40N 40°46' W 074°01'1 4.1
2017-Oct-14 23:30N 40°46' W 074°00'4 8.3
2017-Oct-14 23:00N 40°42' W 074°02'1 2.6
2017-Oct-14 22:30N 40°42' W 074°00'4 7.0
2017-Oct-14 22:00N 40°46' W 074°00'0 0.0
2017-Oct-14 21:30N 40°46' W 074°00'0 0.0
2017-Oct-14 21:00N 40°46' W 074°00'3 6.3
2017-Oct-14 20:30N 40°43' W 074°02'1 2.9
2017-Oct-14 20:00N 40°42' W 073°60'1 2.5
2017-Oct-14 19:30N 40°43' W 074°01'3 5.4
2017-Oct-14 19:00N 40°46' W 074°00'1 2.4
2017-Oct-14 18:30N 40°45' W 074°01'3 5.5
2017-Oct-14 18:00N 40°42' W 074°01'1 1.4
2017-Oct-14 17:30N 40°42' W 074°01'3 6.8
2017-Oct-14 17:00N 40°46' W 074°00'2 3.6
2017-Oct-14 16:30N 40°44' W 074°01'2 4.4
2017-Oct-14 16:00N 40°42' W 074°00'1 2.2
2017-Oct-14 15:30N 40°43' W 074°01'3 5.7
2017-Oct-14 15:00N 40°46' W 074°00'0 0.4
2017-Oct-14 14:30N 40°46' W 074°00'0 0.0
2017-Oct-13 23:32N 40°46' W 074°01'013.0
2017-Oct-13 23:30N 40°46' W 074°00'5 9.2
2017-Oct-13 23:00N 40°41' W 074°02'2 3.3
2017-Oct-13 22:30N 40°42' W 074°00'4 7.6
2017-Oct-13 22:00N 40°46' W 074°00'3 5.7
2017-Oct-13 21:30N 40°43' W 074°01'3 5.6
2017-Oct-13 21:00N 40°46' W 074°00'2 4.0
2017-Oct-13 20:30N 40°44' W 074°01'2 3.9
2017-Oct-13 20:00N 40°42' W 073°60'1 2.5
2017-Oct-13 19:30N 40°43' W 074°01'3 5.3
2017-Oct-13 19:00N 40°46' W 074°00'1 1.7
2017-Oct-13 18:30N 40°45' W 074°01'3 6.2
2017-Oct-13 18:00N 40°42' W 074°01'0 0.7
2017-Oct-13 17:30N 40°42' W 074°01'4 7.4
2017-Oct-13 17:00N 40°46' W 074°00'2 3.2
2017-Oct-13 16:30N 40°44' W 074°01'2 4.7
2017-Oct-13 16:00N 40°42' W 074°01'0 0.3
2017-Oct-13 15:30N 40°42' W 074°01'4 7.7
2017-Oct-13 15:00N 40°46' W 074°00'0 0.0
2017-Oct-13 14:30N 40°46' W 074°00'1 1.5
2017-Oct-13 14:00N 40°45' W 074°01'0 0.2
2017-Oct-13 13:30N 40°46' W 074°01'1 1.3
2017-Oct-13 13:00N 40°46' W 074°01'0 0.3
2017-Oct-13 12:31N 40°46' W 074°00'0 0.9
2017-Oct-13 12:00N 40°45' W 074°01'0 0.7
2017-Oct-13 11:30N 40°46' W 074°01'1 1.7
2017-Oct-13 11:00N 40°46' W 074°01'0 0.0
2017-Oct-12 23:56N 40°46' W 074°01'2 4.2
2017-Oct-12 23:30N 40°44' W 074°01'3 5.3
2017-Oct-12 23:00N 40°42' W 074°01'1 1.2
2017-Oct-12 22:30N 40°42' W 074°01'5 9.7
2017-Oct-12 22:00N 40°47' W 074°01'4 7.4
2017-Oct-12 21:30N 40°43' W 074°01'3 5.5
2017-Oct-12 21:00N 40°46' W 074°00'  
Track history (hours):
 
Tides and Currents Weather Stations Pressure Air Temp Water Temp Dewpoint Dewpoint Depression Visibility Wind Speed Wind Dir Waves Ship Positions

Robert Fulton

Owner: PORT IMPERIAL FERRY CORP, WEEHAWKEN, NJ. More information available from US FCC via Universal Licensing System and Coast Guard Vessel Documentation Center.

Last reported at 2017-Oct-22 21:00 UTC. Time now 2017-Oct-22 21:21 UTC.
Position N 40°46' W 074°00'.

Length 28 m.

Type: Passenger vessel. MMSI: 366702000.

Date/timePositionNaut miles runAvg speedWind from/ knotsBaromVisibWave heightAir tempDewpointWater temp
2017-Oct-22 21:00N 40°46' W 074°00'2 4.1
2017-Oct-22 20:30N 40°44' W 074°01'2 3.6
2017-Oct-22 20:00N 40°42' W 073°60'1 2.4
2017-Oct-22 19:30N 40°43' W 074°01'3 5.3
2017-Oct-22 19:00N 40°46' W 074°00'2 4.3
2017-Oct-22 18:30N 40°44' W 074°01'2 3.6
2017-Oct-22 18:00N 40°42' W 073°60'1 2.5
2017-Oct-22 17:30N 40°43' W 074°01'3 5.4
2017-Oct-22 17:00N 40°46' W 074°00'2 3.9
2017-Oct-22 16:30N 40°44' W 074°01'2 3.7
2017-Oct-22 15:59N 40°42' W 074°00'1 2.4
2017-Oct-22 15:30N 40°43' W 074°01'3 5.6
2017-Oct-22 15:00N 40°46' W 074°00'0 0.0
2017-Oct-21 23:44N 40°46' W 074°01'1 3.1
2017-Oct-21 23:30N 40°45' W 074°01'4 7.1
2017-Oct-21 23:00N 40°42' W 074°02'1 2.5
2017-Oct-21 22:30N 40°42' W 074°00'3 6.7
2017-Oct-21 22:00N 40°46' W 074°00'4 7.5
2017-Oct-21 21:30N 40°42' W 074°00'4 7.1
2017-Oct-21 20:59N 40°46' W 074°00'3 6.0
2017-Oct-21 20:30N 40°43' W 074°02'2 3.2
2017-Oct-21 20:00N 40°42' W 073°60'1 2.5
2017-Oct-21 19:30N 40°43' W 074°01'3 5.5
2017-Oct-21 19:00N 40°46' W 074°00'2 4.8
2017-Oct-21 18:30N 40°43' W 074°01'2 3.2
2017-Oct-21 18:00N 40°42' W 073°60'1 2.4
2017-Oct-21 17:30N 40°43' W 074°01'3 5.5
2017-Oct-21 17:00N 40°46' W 074°00'2 4.6
2017-Oct-21 16:30N 40°43' W 074°01'2 3.4
2017-Oct-21 16:00N 40°42' W 073°60'1 2.3
2017-Oct-21 15:30N 40°43' W 074°01'3 5.4
2017-Oct-21 15:00N 40°46' W 074°00'1 1.5
2017-Oct-21 14:30N 40°46' W 074°01'0 0.0
2017-Oct-20 23:43N 40°46' W 074°01'1 3.3
2017-Oct-20 23:30N 40°46' W 074°00'5 9.5
2017-Oct-20 23:01N 40°41' W 074°02'1 2.8
2017-Oct-20 22:30N 40°42' W 074°01'4 8.9
2017-Oct-20 22:01N 40°46' W 074°00'3 6.7
2017-Oct-20 21:31N 40°43' W 074°01'1 2.4
2017-Oct-20 21:01N 40°44' W 074°02'1 1.5
2017-Oct-20 20:30N 40°43' W 074°01'2 3.2
2017-Oct-20 20:00N 40°42' W 073°60'1 2.5
2017-Oct-20 19:30N 40°43' W 074°01'3 6.0
2017-Oct-20 19:00N 40°46' W 074°00'2 4.1
2017-Oct-20 18:30N 40°44' W 074°01'2 3.6
2017-Oct-20 18:00N 40°42' W 073°60'1 2.2
2017-Oct-20 17:31N 40°42' W 074°01'4 7.1
2017-Oct-20 17:00N 40°46' W 074°00'1 2.0
2017-Oct-20 16:30N 40°45' W 074°01'3 6.4
2017-Oct-20 16:01N 40°42' W 074°01'1 1.1
2017-Oct-20 15:31N 40°42' W 074°01'4 7.5
2017-Oct-20 15:00N 40°46' W 074°00'0 0.1
2017-Oct-20 14:30N 40°46' W 074°00'0 0.2
2017-Oct-20 13:30N 40°46' W 074°00'0 0.6
2017-Oct-20 13:00N 40°45' W 074°01'0 0.6
2017-Oct-20 12:30N 40°45' W 074°01'0 0.1
2017-Oct-20 12:00N 40°45' W 074°01'0 0.1
2017-Oct-20 11:30N 40°46' W 074°01'1 1.4
2017-Oct-20 11:00N 40°46' W 074°01'0 0.7
2017-Oct-20 10:29N 40°46' W 074°01'0 0.0
2017-Oct-19 23:51N 40°46' W 074°01'1 2.8
2017-Oct-19 23:30N 40°45' W 074°01'3 6.9
2017-Oct-19 23:00N 40°42' W 074°01'0 0.2
2017-Oct-19 22:30N 40°42' W 074°01'5 9.2
2017-Oct-19 22:00N 40°47' W 074°01'4 7.4
2017-Oct-19 21:30N 40°43' W 074°01'3 5.2
2017-Oct-19 21:00N 40°46' W 074°01'1 2.5
2017-Oct-19 20:30N 40°44' W 074°01'2 5.0
2017-Oct-19 20:00N 40°42' W 074°01'0 0.6
2017-Oct-19 19:30N 40°42' W 074°01'4 7.4
2017-Oct-19 19:00N 40°46' W 074°00'2 4.1
2017-Oct-19 18:30N 40°44' W 074°01'2 3.9
2017-Oct-19 18:00N 40°42' W 074°01'1 1.2
2017-Oct-19 17:31N 40°42' W 074°01'4 7.1
2017-Oct-19 17:00N 40°46' W 074°00'1 2.8
2017-Oct-19 16:30N 40°44' W 074°01'3 5.1
2017-Oct-19 16:01N 40°42' W 074°01'0 0.5
2017-Oct-19 15:30N 40°42' W 074°01'4 7.1
2017-Oct-19 15:00N 40°46' W 074°00'0 0.0
2017-Oct-19 14:30N 40°46' W 074°00'1 1.3
2017-Oct-19 14:00N 40°45' W 074°01'0 0.2
2017-Oct-19 13:30N 40°45' W 074°01'0 0.3
2017-Oct-19 13:00N 40°45' W 074°01'0 0.2
2017-Oct-19 12:30N 40°45' W 074°01'0 0.1
2017-Oct-19 12:00N 40°46' W 074°01'0 0.0
2017-Oct-19 11:30N 40°46' W 074°01'1 1.7
2017-Oct-19 11:00N 40°46' W 074°00'1 1.5
2017-Oct-19 10:31N 40°46' W 074°01'0 0.0
2017-Oct-19 10:00N 40°46' W 074°01'0 0.0
2017-Oct-19 09:30N 40°46' W 074°01'0 0.0
2017-Oct-19 09:01N 40°46' W 074°01'0 0.0
2017-Oct-18 23:59N 40°46' W 074°01'2 4.6
2017-Oct-18 23:30N 40°44' W 074°01'2 4.1
2017-Oct-18 23:00N 40°42' W 073°60'1 2.4
2017-Oct-18 22:30N 40°42' W 074°01'4 8.5
2017-Oct-18 22:00N 40°46' W 074°00'3 6.5
2017-Oct-18 21:30N 40°43' W 074°01'3 5.5
2017-Oct-18 21:00N 40°46' W 074°00'2 4.6
2017-Oct-18 20:30N 40°43' W 074°01'2 3.5
2017-Oct-18 20:00N 40°42' W 074°00'1 2.4
2017-Oct-18 19:30N 40°43' W 074°01'3 5.4
2017-Oct-18 19:00N 40°46' W 074°00'2 3.6
2017-Oct-18 18:30N 40°44' W 074°01'2 4.3
2017-Oct-18 18:00N 40°42' W 074°01'0 0.8
2017-Oct-18 17:30N 40°42' W 074°01'4 7.7
2017-Oct-18 17:00N 40°46' W 074°00'1 2.6
2017-Oct-18 16:30N 40°44' W 074°01'3 5.7
2017-Oct-18 16:01N 40°42' W 074°02'1 1.6
2017-Oct-18 15:30N 40°42' W 074°01'4 7.5
2017-Oct-18 15:00N 40°46' W 074°00'1 0.8
2017-Oct-18 14:00N 40°46' W 074°01'1 2.0
2017-Oct-18 13:30N 40°45' W 074°01'0 0.1
2017-Oct-18 13:00N 40°45' W 074°01'0 0.2
2017-Oct-18 12:30N 40°46' W 074°01'0 0.2
2017-Oct-18 12:00N 40°45' W 074°01'0 0.1
2017-Oct-18 11:30N 40°45' W 074°01'1 1.5
2017-Oct-18 11:00N 40°46' W 074°00'1 0.1
2017-Oct-17 23:44N 40°46' W 074°01'1 3.2
2017-Oct-17 23:30N 40°46' W 074°00'5 9.4
2017-Oct-17 23:00N 40°41' W 074°02'2 3.2
2017-Oct-17 22:30N 40°42' W 074°01'4 7.4
2017-Oct-17 22:00N 40°46' W 074°00'1 1.6
2017-Oct-17 21:30N 40°45' W 074°01'3 6.2
2017-Oct-17 21:00N 40°42' W 074°01'1 1.3
2017-Oct-17 20:30N 40°42' W 074°01'3 6.4
2017-Oct-17 20:00N 40°46' W 074°00'2 3.1
2017-Oct-17 19:30N 40°44' W 074°01'2 4.9
2017-Oct-17 19:00N 40°42' W 074°02'1 1.3
2017-Oct-17 18:30N 40°42' W 074°01'3 6.5
2017-Oct-17 18:00N 40°46' W 074°00'2 3.6
2017-Oct-17 17:30N 40°44' W 074°01'2 4.5
2017-Oct-17 17:00N 40°42' W 074°01'1 1.4
2017-Oct-17 16:30N 40°42' W 074°01'3 6.4
2017-Oct-17 16:00N 40°46' W 074°00'2 5.0
2017-Oct-17 15:30N 40°43' W 074°01'2 3.2
2017-Oct-17 15:00N 40°42' W 073°60'1 2.5
2017-Oct-17 14:30N 40°43' W 074°01'3 5.5
2017-Oct-17 14:01N 40°46' W 074°00'1 1.4
2017-Oct-17 13:30N 40°45' W 074°01'0 0.1
2017-Oct-17 13:00N 40°45' W 074°01'0 0.2
2017-Oct-17 12:30N 40°45' W 074°01'0 0.1
2017-Oct-17 12:00N 40°46' W 074°01'0 0.0
2017-Oct-17 11:30N 40°46' W 074°01'1 1.7
2017-Oct-17 11:00N 40°46' W 074°00'1 1.6
2017-Oct-17 10:30N 40°46' W 074°01'0 0.0
2017-Oct-17 10:00N 40°46' W 074°01'0 0.0
2017-Oct-17 09:31N 40°46' W 074°01'0 0.0
2017-Oct-16 22:06N 40°46' W 074°01'0 2.1
2017-Oct-16 22:00N 40°46' W 074°01'3 6.6
2017-Oct-16 21:30N 40°43' W 074°01'1 2.4
2017-Oct-16 21:00N 40°44' W 074°02'2 3.5
2017-Oct-16 20:30N 40°46' W 074°00'4 8.0
2017-Oct-16 20:00N 40°42' W 074°01'0 0.8
2017-Oct-16 19:30N 40°42' W 074°01'4 7.1
2017-Oct-16 19:00N 40°46' W 074°00'1 2.6
2017-Oct-16 18:30N 40°44' W 074°01'3 5.9
2017-Oct-16 18:00N 40°42' W 074°02'1 1.1
2017-Oct-16 17:30N 40°42' W 074°01'4 7.4
2017-Oct-16 17:00N 40°46' W 074°00'2 3.4
2017-Oct-16 16:30N 40°44' W 074°01'2 4.5
2017-Oct-16 16:01N 40°42' W 074°01'1 2.3
2017-Oct-16 15:30N 40°43' W 074°01'3 5.4
2017-Oct-16 15:00N 40°46' W 074°00'0 0.0
2017-Oct-16 14:30N 40°46' W 074°00'0 0.0
2017-Oct-16 13:30N 40°46' W 074°00'1 1.9
2017-Oct-16 13:00N 40°45' W 074°01'0 0.2
2017-Oct-16 12:05N 40°45' W 074°01'0 2.3
2017-Oct-16 12:00N 40°45' W 074°01'1 1.9
2017-Oct-16 11:30N 40°46' W 074°00'1 1.6
2017-Oct-16 11:00N 40°45' W 074°01'1 0.1
2017-Oct-15 23:41N 40°46' W 074°01'1 4.0
2017-Oct-15 23:30N 40°46' W 074°00'4 9.1
2017-Oct-15 23:01N 40°41' W 074°02'3 5.1
2017-Oct-15 22:31N 40°42' W 073°59'3 6.4
2017-Oct-15 22:00N 40°46' W 074°00'0 0.0
2017-Oct-15 21:30N 40°46' W 074°00'0 0.0
2017-Oct-15 21:00N 40°46' W 074°00'2 3.1
2017-Oct-15 20:30N 40°44' W 074°01'2 4.5
2017-Oct-15 20:00N 40°42' W 074°00'1 1.8
2017-Oct-15 19:30N 40°42' W 074°01'3 6.4
2017-Oct-15 19:00N 40°46' W 074°00'2 3.5
2017-Oct-15 18:30N 40°44' W 074°01'2 4.3
2017-Oct-15 18:00N 40°42' W 074°01'1 1.1
2017-Oct-15 17:30N 40°42' W 074°01'4 7.0
2017-Oct-15 17:00N 40°46' W 074°00'2 3.4
2017-Oct-15 16:30N 40°44' W 074°01'2 4.5
2017-Oct-15 16:00N 40°42' W 074°01'0 0.4
2017-Oct-15 15:31N 40°42' W 074°01'4 7.3
2017-Oct-15 15:00N 40°46' W 074°00'1 0.0
2017-Oct-14 23:40N 40°46' W 074°01'1 4.1
2017-Oct-14 23:30N 40°46' W 074°00'4 8.3
2017-Oct-14 23:00N 40°42' W 074°02'1 2.6
2017-Oct-14 22:30N 40°42' W 074°00'4 7.0
2017-Oct-14 22:00N 40°46' W 074°00'0 0.0
2017-Oct-14 21:30N 40°46' W 074°00'0 0.0
2017-Oct-14 21:00N 40°46' W 074°00'3 6.3
2017-Oct-14 20:30N 40°43' W 074°02'1 2.9
2017-Oct-14 20:00N 40°42' W 073°60'1 2.5
2017-Oct-14 19:30N 40°43' W 074°01'3 5.4
2017-Oct-14 19:00N 40°46' W 074°00'1 2.4
2017-Oct-14 18:30N 40°45' W 074°01'3 5.5
2017-Oct-14 18:00N 40°42' W 074°01'1 1.4
2017-Oct-14 17:30N 40°42' W 074°01'3 6.8
2017-Oct-14 17:00N 40°46' W 074°00'2 3.6
2017-Oct-14 16:30N 40°44' W 074°01'2 4.4
2017-Oct-14 16:00N 40°42' W 074°00'1 2.2
2017-Oct-14 15:30N 40°43' W 074°01'3 5.7
2017-Oct-14 15:00N 40°46' W 074°00'0 0.4
2017-Oct-14 14:30N 40°46' W 074°00'0 0.0
2017-Oct-13 23:32N 40°46' W 074°01'013.0
2017-Oct-13 23:30N 40°46' W 074°00'5 9.2
2017-Oct-13 23:00N 40°41' W 074°02'2 3.3
2017-Oct-13 22:30N 40°42' W 074°00'4 7.6
2017-Oct-13 22:00N 40°46' W 074°00'3 5.7
2017-Oct-13 21:30N 40°43' W 074°01'3 5.6
2017-Oct-13 21:00N 40°46' W 074°00'2 4.0
2017-Oct-13 20:30N 40°44' W 074°01'2 3.9
2017-Oct-13 20:00N 40°42' W 073°60'1 2.5
2017-Oct-13 19:30N 40°43' W 074°01'3 5.3
2017-Oct-13 19:00N 40°46' W 074°00'1 1.7
2017-Oct-13 18:30N 40°45' W 074°01'3 6.2
2017-Oct-13 18:00N 40°42' W 074°01'0 0.7
2017-Oct-13 17:30N 40°42' W 074°01'4 7.4
2017-Oct-13 17:00N 40°46' W 074°00'2 3.2
2017-Oct-13 16:30N 40°44' W 074°01'2 4.7
2017-Oct-13 16:00N 40°42' W 074°01'0 0.3
2017-Oct-13 15:30N 40°42' W 074°01'4 7.7
2017-Oct-13 15:00N 40°46' W 074°00'0 0.0
2017-Oct-13 14:30N 40°46' W 074°00'1 1.5
2017-Oct-13 14:00N 40°45' W 074°01'0 0.2
2017-Oct-13 13:30N 40°46' W 074°01'1 1.3
2017-Oct-13 13:00N 40°46' W 074°01'0 0.3
2017-Oct-13 12:31N 40°46' W 074°00'0 0.9
2017-Oct-13 12:00N 40°45' W 074°01'0 0.7
2017-Oct-13 11:30N 40°46' W 074°01'1 1.7
2017-Oct-13 11:00N 40°46' W 074°01'0 0.0
2017-Oct-12 23:56N 40°46' W 074°01'2 4.2
2017-Oct-12 23:30N 40°44' W 074°01'3 5.3
2017-Oct-12 23:00N 40°42' W 074°01'1 1.2
2017-Oct-12 22:30N 40°42' W 074°01'5 9.7
2017-Oct-12 22:00N 40°47' W 074°01'4 7.4
2017-Oct-12 21:30N 40°43' W 074°01'3 5.5
2017-Oct-12 21:00N 40°46' W 074°00'  

Dump ship's entire track history